ADDS METAR Data INFO
IDs: Format: Raw Decoded Include TAF

Data at: 1529 UTC 18 Jun 2018

KPDK 181453Z 29006KT 10SM CLR 29/20 A3018 RMK AO2 SLP199 T02890200 50004
KPDK 181353Z 35007KT 10SM CLR 28/19 A3018 RMK AO2 SLP201 T02780194
KPDK 181253Z 32004KT 10SM CLR 26/19 A3018 RMK AO2 SLP203 T02560194
KPDK 181153Z 32003KT 10SM CLR 24/19 A3016 RMK AO2 SLP196 T02390194 10239 20211 51008
KPDK 181053Z 00000KT 10SM CLR 22/19 A3016 RMK AO2 SLP197 T02170194
KPDK 180953Z AUTO 00000KT 10SM CLR 21/19 A3015 RMK AO2 SLP191 T02110194
KPDK 180853Z AUTO 00000KT 10SM CLR 21/19 A3014 RMK AO2 SLP188 T02110194 55003
KPDK 180753Z AUTO 00000KT 10SM CLR 21/19 A3013 RMK AO2 SLP185 T02110194
KPDK 180653Z AUTO 28003KT 10SM CLR 22/20 A3013 RMK AO2 SLP186 T02170200
KPDK 180553Z AUTO 00000KT 10SM CLR 23/19 A3015 RMK AO2 SLP191 T02280194 10267 20228 58003
KPDK 180453Z AUTO 00000KT 10SM CLR 23/21 A3016 RMK AO2 SLP194 T02280206 403220206
KPDK 180353Z AUTO 00000KT 10SM CLR 24/21 A3016 RMK AO2 SLP194 T02390211
KPDK 180253Z AUTO 00000KT 10SM CLR 24/22 A3016 RMK AO2 SLP194 T02440217 51012
KPDK 180153Z 00000KT 10SM CLR 26/22 A3015 RMK AO2 SLP191 T02560217
KPDK 180053Z 00000KT 10SM CLR 26/22 A3014 RMK AO2 SLP188 T02610217
KPDK 172353Z 25004KT 10SM CLR 27/21 A3012 RMK AO2 SLP184 T02670211 10322 20267 53007
KPDK 172253Z VRB05KT 10SM CLR 28/22 A3011 RMK AO2 SLP180 T02780217
KPDK 172153Z 18005KT 10SM SCT047 SCT055 29/21 A3010 RMK AO2 LTG DSNT W SLP175 T02940211
KPDK 172053Z 00000KT 10SM CLR 31/20 A3010 RMK AO2 LTG DSNT SW-NW SLP174 T03110200 58013
KPDK 171953Z VRB03KT 10SM FEW044 31/21 A3011 RMK AO2 LTG DSNT N AND NW SLP178 T03110206
KPDK 171853Z 11004KT 10SM SCT043 31/21 A3013 RMK AO2 SLP184 T03060206
KPDK 171753Z 20003KT 10SM FEW036 29/22 A3014 RMK AO2 SLP188 T02940217 10306 20222 58015
KPDK 171653Z VRB04KT 10SM CLR 29/22 A3017 RMK AO2 SLP197 T02890222
KPDK 171553Z VRB03KT 10SM CLR 27/22 A3019 RMK AO2 SLP206 T02720217
KPDK 171508Z 00000KT 10SM SCT014 27/22 A3018 RMK AO2 T02720222
KPDK 171453Z 32004KT 10SM BKN014 27/22 A3018 RMK AO2 SLP203 T02670222 51013
KPDK 171441Z 00000KT 10SM BKN007 26/22 A3018 RMK AO2 T02610217
KPDK 171434Z 00000KT 10SM BKN012 25/22 A3018 RMK AO2 T02500217
KPDK 171353Z 00000KT 10SM BKN008 24/22 A3018 RMK AO2 SLP205 T02390217
KPDK 171253Z 28003KT 10SM BKN008 23/21 A3017 RMK AO2 SLP200 T02330211
KPDK 171153Z 01003KT 10SM OVC009 22/21 A3015 RMK AO2 SLP193 70044 T02220211 10222 20206 53019
KPDK 171115Z 03003KT 10SM OVC009 22/21 A3013 RMK AO2 T02170206
KPDK 171053Z AUTO 32003KT 10SM BKN011 21/21 A3012 RMK AO2 SLP186 T02110206
KPDK 170953Z AUTO 00000KT 10SM CLR 21/20 A3010 RMK AO2 SLP175 T02110200
KPDK 170853Z AUTO 00000KT 9SM CLR 21/20 A3009 RMK AO2 SLP171 T02110200 56009
KPDK 170753Z AUTO 00000KT 10SM CLR 22/21 A3010 RMK AO2 SLP172 T02170206
KPDK 170653Z AUTO 02005KT 10SM CLR 22/21 A3010 RMK AO2 SLP175 T02170211
KPDK 170553Z AUTO 00000KT 10SM FEW120 22/21 A3012 RMK AO2 SLP179 60040 T02170211 10256 20217 50002
KPDK 170453Z AUTO 00000KT 10SM FEW085 BKN110 22/21 A3014 RMK AO2 LTG DSNT NW RAE0355 TSE24 SLP186 P0000 T02220211 403220217
KPDK 170439Z AUTO 00000KT 10SM SCT080 SCT110 22/21 A3013 RMK AO2 RAE0355 TSE24 P0000 T02220211
KPDK 170430Z AUTO 00000KT 10SM VCTS BKN085 BKN110 22/21 A3013 RMK AO2 LTG DSNT NW RAE0355 TSE24 P0000 T02170206
KPDK 170353Z AUTO VRB03KT 10SM -TSRA SCT029 BKN038 OVC075 22/21 A3015 RMK AO2 RAB12 TSB26 SLP191 P0040 T02170206
KPDK 170344Z AUTO VRB06KT 10SM -TSRA BKN027 BKN046 OVC080 22/20 A3015 RMK AO2 LTG DSNT N AND NE RAB12 TSB26 P0040 T02170200
KPDK 170334Z AUTO 09008KT 050V130 3SM TSRA BR SCT026 BKN033 OVC065 22/20 A3013 RMK AO2 LTG DSNT N AND NE RAB12 TSB26 P0040 T02170200
KPDK 170332Z AUTO VRB05KT 1 3/4SM +TSRA BR SCT026 OVC031 22/21 A3013 RMK AO2 LTG DSNT N AND NE RAB12 TSB26 P0039 T02170206